createdAt,value
2019-04-04T00:01:12.929Z,14.13
2019-04-04T00:03:41.435Z,13.98
2019-04-04T00:06:09.906Z,14.03
2019-04-04T00:08:38.412Z,14.06
2019-04-04T00:11:06.886Z,14.09
2019-04-04T00:13:36.823Z,14.17
2019-04-04T00:16:06.495Z,14.14
2019-04-04T00:18:36.087Z,13.92
2019-04-04T00:21:08.579Z,13.85
2019-04-04T00:23:39.307Z,13.96
2019-04-04T00:26:10.867Z,14.13
2019-04-04T00:28:40.123Z,13.94
2019-04-04T00:31:08.747Z,13.83
2019-04-04T00:33:37.376Z,13.91
2019-04-04T00:36:06.017Z,13.87
2019-04-04T00:38:36.046Z,13.95
2019-04-04T00:41:05.158Z,13.87
2019-04-04T00:43:33.764Z,13.91
2019-04-04T00:46:02.404Z,13.92
2019-04-04T00:48:32.156Z,13.95
2019-04-04T00:51:01.359Z,14.06
2019-04-04T00:53:30.002Z,13.98
2019-04-04T00:55:58.606Z,13.88
2019-04-04T00:58:27.240Z,14.05
2019-04-04T01:00:55.858Z,14.17
2019-04-04T01:03:24.479Z,14.02
2019-04-04T01:05:53.125Z,13.97
2019-04-04T01:08:21.764Z,14.00
2019-04-04T01:10:50.387Z,14.10
2019-04-04T01:13:19.007Z,13.85
2019-04-04T01:15:47.617Z,13.95
2019-04-04T01:18:16.320Z,13.86
2019-04-04T01:20:44.929Z,13.85
2019-04-04T01:23:13.502Z,13.90
2019-04-04T01:25:42.038Z,14.26
2019-04-04T01:28:10.679Z,14.23
2019-04-04T01:30:39.216Z,14.09
2019-04-04T01:33:07.768Z,14.06
2019-04-04T01:35:36.708Z,14.07
2019-04-04T01:38:05.416Z,14.00
2019-04-04T01:40:34.032Z,14.13
2019-04-04T01:43:02.642Z,14.11
2019-04-04T01:45:31.284Z,13.61
2019-04-04T01:47:59.842Z,13.99
2019-04-04T01:50:28.465Z,13.81
2019-04-04T01:52:59.281Z,13.91
2019-04-04T01:55:27.413Z,13.90
2019-04-04T01:57:56.016Z,14.35
2019-04-04T02:00:24.681Z,14.22
2019-04-04T02:02:53.226Z,14.09
2019-04-04T02:05:21.773Z,14.19
2019-04-04T02:07:50.324Z,14.35
2019-04-04T02:10:18.864Z,14.20
2019-04-04T02:12:47.370Z,13.80
2019-04-04T02:15:15.853Z,13.49
2019-04-04T02:17:44.326Z,13.70
2019-04-04T02:20:13.067Z,13.65
2019-04-04T02:22:41.759Z,13.88
2019-04-04T02:25:10.722Z,13.76
2019-04-04T02:27:39.198Z,13.77
2019-04-04T02:30:14.858Z,13.65
2019-04-04T02:32:38.884Z,13.87
2019-04-04T02:35:10.121Z,13.59
2019-04-04T02:37:37.839Z,14.17
2019-04-04T02:40:08.681Z,13.84
2019-04-04T02:42:38.262Z,13.82
2019-04-04T02:45:06.995Z,13.54
2019-04-04T02:47:35.497Z,13.62
2019-04-04T02:50:05.402Z,13.74
2019-04-04T02:52:33.909Z,13.63
2019-04-04T02:55:02.457Z,13.50
2019-04-04T02:57:30.964Z,13.65
2019-04-04T02:59:59.521Z,13.82
2019-04-04T03:02:27.996Z,13.56
2019-04-04T03:04:56.564Z,13.78
2019-04-04T03:07:29.852Z,13.64
2019-04-04T03:09:55.500Z,13.99
2019-04-04T03:12:26.287Z,13.61
2019-04-04T03:14:54.201Z,13.84
2019-04-04T03:17:22.746Z,13.41
2019-04-04T03:19:51.249Z,13.16
2019-04-04T03:22:19.737Z,13.15
2019-04-04T03:24:48.213Z,13.09
2019-04-04T03:27:16.677Z,13.30
2019-04-04T03:29:45.197Z,13.14
2019-04-04T03:32:15.971Z,13.18
2019-04-04T03:34:49.704Z,13.18
2019-04-04T03:37:14.075Z,13.22
2019-04-04T03:39:42.596Z,13.55
2019-04-04T03:42:11.092Z,13.28
2019-04-04T03:44:39.640Z,13.37
2019-04-04T03:47:10.429Z,13.52
2019-04-04T03:49:38.335Z,13.49
2019-04-04T03:52:10.011Z,13.71
2019-04-04T03:54:37.100Z,13.58
2019-04-04T03:57:05.602Z,13.38
2019-04-04T03:59:34.068Z,13.46
2019-04-04T04:02:02.600Z,13.16
2019-04-04T04:04:31.141Z,13.25
2019-04-04T04:06:59.628Z,13.17
2019-04-04T04:09:28.117Z,13.39
2019-04-04T04:11:56.585Z,13.23
2019-04-04T04:14:25.089Z,13.13
2019-04-04T04:16:53.572Z,13.26
2019-04-04T04:19:24.194Z,13.46
2019-04-04T04:21:52.249Z,13.20
2019-04-04T04:24:20.744Z,13.30
2019-04-04T04:26:49.243Z,13.05
2019-04-04T04:29:17.713Z,13.47
2019-04-04T04:31:49.326Z,13.16
2019-04-04T04:34:16.418Z,13.27
2019-04-04T04:36:47.658Z,13.14
2019-04-04T04:39:15.099Z,12.97
2019-04-04T04:41:43.611Z,13.02
2019-04-04T04:44:12.072Z,12.69
2019-04-04T04:46:40.559Z,13.17
2019-04-04T04:49:09.053Z,13.06
2019-04-04T04:51:37.522Z,13.07
2019-04-04T04:54:06.029Z,13.13
2019-04-04T04:56:34.501Z,13.35
2019-04-04T04:59:03.006Z,13.11
2019-04-04T05:01:31.570Z,13.26
2019-04-04T05:04:02.416Z,13.05
2019-04-04T05:06:30.252Z,13.03
2019-04-04T05:08:58.730Z,12.93
2019-04-04T05:11:27.216Z,13.12
2019-04-04T05:13:56.083Z,12.92
2019-04-04T05:16:25.898Z,12.91
2019-04-04T05:18:54.388Z,13.15
2019-04-04T05:21:25.085Z,13.42
2019-04-04T05:23:53.106Z,13.44
2019-04-04T05:26:21.582Z,13.45
2019-04-04T05:28:50.046Z,13.33
2019-04-04T05:31:18.817Z,13.66
2019-04-04T05:33:47.371Z,13.35
2019-04-04T05:36:15.870Z,13.46
2019-04-04T05:38:47.137Z,13.51
2019-04-04T05:41:16.451Z,13.55
2019-04-04T05:43:44.967Z,13.28
2019-04-04T05:46:13.459Z,13.61
2019-04-04T05:48:41.921Z,13.59
2019-04-04T05:51:10.441Z,13.73
2019-04-04T05:53:38.929Z,13.98
2019-04-04T05:56:07.509Z,13.78
2019-04-04T05:58:35.980Z,13.69
2019-04-04T06:01:07.627Z,13.69
2019-04-04T06:03:36.509Z,13.95
2019-04-04T06:06:05.048Z,13.95
2019-04-04T06:08:33.548Z,14.35
2019-04-04T06:11:04.795Z,13.99
2019-04-04T06:13:33.272Z,14.49
2019-04-04T06:16:02.061Z,14.20
2019-04-04T06:18:32.037Z,14.44
2019-04-04T06:21:00.518Z,14.48
2019-04-04T06:23:29.024Z,14.19
2019-04-04T06:25:57.588Z,14.60
2019-04-04T06:28:26.084Z,14.60
2019-04-04T06:30:54.560Z,14.74
2019-04-04T06:33:23.044Z,14.72
2019-04-04T06:35:51.634Z,14.64
2019-04-04T06:38:22.954Z,14.62
2019-04-04T06:40:50.311Z,14.78
2019-04-04T06:43:18.800Z,14.82
2019-04-04T06:45:47.541Z,14.95
2019-04-04T06:48:16.025Z,15.04
2019-04-04T06:50:44.527Z,15.02
2019-04-04T06:53:13.180Z,15.03
2019-04-04T06:55:41.663Z,15.50
2019-04-04T06:58:10.138Z,15.84
2019-04-04T07:00:38.647Z,15.73
2019-04-04T07:03:07.143Z,15.98
2019-04-04T07:05:37.930Z,15.94
2019-04-04T07:08:05.939Z,15.77
2019-04-04T07:10:34.413Z,15.50
2019-04-04T07:13:20.155Z,16.11
2019-04-04T07:15:33.099Z,16.20
2019-04-04T07:18:01.612Z,15.48
2019-04-04T07:20:30.080Z,15.95
2019-04-04T07:22:58.565Z,16.36
2019-04-04T07:25:27.032Z,16.47
2019-04-04T07:27:55.521Z,16.71
2019-04-04T07:30:24.071Z,16.41
2019-04-04T07:32:52.585Z,16.69
2019-04-04T07:35:21.260Z,16.39
2019-04-04T07:37:52.925Z,16.99
2019-04-04T07:40:20.426Z,16.58
2019-04-04T07:42:49.022Z,16.55
2019-04-04T07:45:17.544Z,16.85
2019-04-04T07:47:47.429Z,16.94
2019-04-04T07:50:16.364Z,17.18
2019-04-04T07:52:44.849Z,17.13
2019-04-04T07:55:14.881Z,17.24
2019-04-04T07:57:43.351Z,17.14
2019-04-04T08:00:12.503Z,17.33
2019-04-04T08:02:40.973Z,17.32
2019-04-04T08:05:12.924Z,17.66
2019-04-04T08:07:40.097Z,17.86
2019-04-04T08:10:19.850Z,17.83
2019-04-04T08:12:39.237Z,17.80
2019-04-04T08:15:07.984Z,17.29
2019-04-04T08:17:36.638Z,18.19
2019-04-04T08:20:06.780Z,18.25
2019-04-04T08:22:35.322Z,18.57
2019-04-04T08:25:05.045Z,18.11
2019-04-04T08:27:33.509Z,17.98
2019-04-04T08:30:02.041Z,18.15
2019-04-04T08:32:30.523Z,18.37
2019-04-04T08:34:59.060Z,18.49
2019-04-04T08:37:27.594Z,18.03
2019-04-04T08:39:56.064Z,18.70
2019-04-04T08:42:24.600Z,19.56
2019-04-04T08:44:53.050Z,19.24
2019-04-04T08:47:21.582Z,18.88
2019-04-04T08:49:50.169Z,19.00
2019-04-04T08:52:20.794Z,18.56
2019-04-04T08:54:48.917Z,18.93
2019-04-04T08:57:17.383Z,19.21
2019-04-04T08:59:45.950Z,19.76
2019-04-04T09:02:14.430Z,19.55
2019-04-04T09:04:42.935Z,19.46
2019-04-04T09:07:11.437Z,19.65
2019-04-04T09:09:40.013Z,19.66
2019-04-04T09:12:08.600Z,19.80
2019-04-04T09:14:37.086Z,20.17
2019-04-04T09:17:05.631Z,19.42
2019-04-04T09:19:34.137Z,20.06
2019-04-04T09:22:02.608Z,20.11
2019-04-04T09:24:31.105Z,19.63
2019-04-04T09:26:59.573Z,20.26
2019-04-04T09:29:28.060Z,19.97
2019-04-04T09:31:56.532Z,20.04
2019-04-04T09:34:25.015Z,19.76
2019-04-04T09:36:53.519Z,19.77
2019-04-04T09:39:21.991Z,20.84
2019-04-04T09:41:50.463Z,20.84
2019-04-04T09:44:18.933Z,20.51
2019-04-04T09:46:47.419Z,20.98
2019-04-04T09:49:15.901Z,20.18
2019-04-04T09:51:44.384Z,20.73
2019-04-04T09:54:12.862Z,20.90
2019-04-04T09:56:41.338Z,21.10
2019-04-04T09:59:09.838Z,21.05
2019-04-04T10:01:38.476Z,20.92
2019-04-04T10:04:06.987Z,20.11
2019-04-04T10:06:35.463Z,20.11
2019-04-04T10:09:15.688Z,20.68
2019-04-04T10:11:36.473Z,21.00
2019-04-04T10:14:05.131Z,21.30
2019-04-04T10:16:33.587Z,20.09
2019-04-04T10:19:04.095Z,19.12
2019-04-04T10:21:32.590Z,19.51
2019-04-04T10:24:01.095Z,19.82
2019-04-04T10:26:29.743Z,20.16
2019-04-04T10:28:58.211Z,20.16
2019-04-04T10:31:26.727Z,19.77
2019-04-04T10:33:55.263Z,20.54
2019-04-04T10:36:23.760Z,20.54
2019-04-04T10:38:52.238Z,20.03
2019-04-04T10:41:20.737Z,20.27
2019-04-04T10:43:49.213Z,20.24
2019-04-04T10:46:17.715Z,20.96
2019-04-04T10:48:46.212Z,21.91
2019-04-04T10:51:14.689Z,21.61
2019-04-04T10:53:43.159Z,21.98
2019-04-04T10:56:11.643Z,20.86
2019-04-04T10:58:40.146Z,21.36
2019-04-04T11:01:08.614Z,21.26
2019-04-04T11:03:37.125Z,21.51
2019-04-04T11:06:05.611Z,21.29
2019-04-04T11:08:34.077Z,21.78
2019-04-04T11:11:02.956Z,22.78
2019-04-04T11:13:33.891Z,22.91
2019-04-04T11:16:01.655Z,22.38
2019-04-04T11:18:30.142Z,22.65
2019-04-04T11:20:58.631Z,22.19
2019-04-04T11:23:27.108Z,21.07
2019-04-04T11:25:55.570Z,20.76
2019-04-04T11:28:24.826Z,20.71
2019-04-04T11:30:53.295Z,20.78
2019-04-04T11:33:21.810Z,21.43
2019-04-04T11:35:50.354Z,21.38
2019-04-04T11:38:18.860Z,21.28
2019-04-04T11:40:47.398Z,21.41
2019-04-04T11:43:15.939Z,21.39
2019-04-04T11:45:44.403Z,22.33
2019-04-04T11:48:12.870Z,22.24
2019-04-04T11:50:41.354Z,22.02
2019-04-04T11:53:09.862Z,22.56
2019-04-04T11:55:38.366Z,22.83
2019-04-04T11:58:06.843Z,23.50
2019-04-04T12:00:39.504Z,22.96
2019-04-04T12:03:07.991Z,23.03
2019-04-04T12:05:36.530Z,22.75
2019-04-04T12:08:05.208Z,23.05
2019-04-04T12:10:33.780Z,23.16
2019-04-04T12:13:03.132Z,22.31
2019-04-04T12:15:31.602Z,21.80
2019-04-04T12:18:00.097Z,22.44
2019-04-04T12:20:28.596Z,22.30
2019-04-04T12:22:57.075Z,23.27
2019-04-04T12:25:25.628Z,22.95
2019-04-04T12:27:54.122Z,22.38
2019-04-04T12:30:24.288Z,22.66
2019-04-04T12:32:52.760Z,23.58
2019-04-04T12:35:21.280Z,23.18
2019-04-04T12:37:49.747Z,22.97
2019-04-04T12:40:20.709Z,21.88
2019-04-04T12:42:48.605Z,21.88
2019-04-04T12:45:17.215Z,21.63
2019-04-04T12:47:45.889Z,21.79
2019-04-04T12:50:15.191Z,21.92
2019-04-04T12:52:43.673Z,21.95
2019-04-04T12:55:12.511Z,21.90
2019-04-04T12:57:40.980Z,21.57
2019-04-04T13:00:11.131Z,21.41
2019-04-04T13:02:39.765Z,22.19
2019-04-04T13:05:08.991Z,21.85
2019-04-04T13:07:37.569Z,22.18
2019-04-04T13:10:11.773Z,22.51
2019-04-04T13:12:40.360Z,22.28
2019-04-04T13:15:09.571Z,22.42
2019-04-04T13:17:38.144Z,22.88
2019-04-04T13:20:08.274Z,22.08
2019-04-04T13:22:36.952Z,21.76
2019-04-04T13:25:08.189Z,22.15
2019-04-04T13:27:36.869Z,22.35
2019-04-04T13:30:11.305Z,22.40
2019-04-04T13:32:39.949Z,22.96
2019-04-04T13:35:09.588Z,23.06
2019-04-04T13:37:38.083Z,23.00
2019-04-04T13:40:07.352Z,22.92
2019-04-04T13:42:35.806Z,22.69
2019-04-04T13:45:06.258Z,22.24
2019-04-04T13:47:38.230Z,23.29
2019-04-04T13:50:12.235Z,22.79
2019-04-04T13:52:39.956Z,22.24
2019-04-04T13:55:08.664Z,21.84
2019-04-04T13:57:39.272Z,21.17
2019-04-04T14:00:09.401Z,21.23
2019-04-04T14:02:37.952Z,21.06
2019-04-04T14:05:10.004Z,21.15
2019-04-04T14:07:38.692Z,21.15
2019-04-04T14:10:07.801Z,21.41
2019-04-04T14:12:36.289Z,21.27
2019-04-04T14:15:10.406Z,21.31
2019-04-04T14:17:38.881Z,21.31
2019-04-04T14:20:08.928Z,21.01
2019-04-04T14:22:37.459Z,21.17
2019-04-04T14:25:07.507Z,20.75
2019-04-04T14:27:37.408Z,20.70
2019-04-04T14:30:07.346Z,20.77
2019-04-04T14:32:35.838Z,20.51
2019-04-04T14:35:06.596Z,20.51
2019-04-04T14:37:35.075Z,20.51
2019-04-04T14:40:05.224Z,20.36
2019-04-04T14:42:33.703Z,20.54
2019-04-04T14:45:02.889Z,20.47
2019-04-04T14:47:33.097Z,20.40
2019-04-04T14:50:04.627Z,19.90
2019-04-04T14:52:32.093Z,20.05
2019-04-04T14:55:00.556Z,20.05
2019-04-04T14:57:29.067Z,20.28
2019-04-04T14:59:57.541Z,20.28
2019-04-04T15:02:26.104Z,20.08
2019-04-04T15:04:54.614Z,20.36
2019-04-04T15:07:23.209Z,20.36
2019-04-04T15:09:51.753Z,20.44
2019-04-04T15:12:20.214Z,20.44
2019-04-04T15:14:48.779Z,20.31
2019-04-04T15:17:17.290Z,20.45
2019-04-04T15:19:45.766Z,20.45
2019-04-04T15:22:14.248Z,20.63
2019-04-04T15:24:44.462Z,20.63
2019-04-04T15:27:14.097Z,20.36
2019-04-04T15:29:44.082Z,19.99
2019-04-04T15:32:12.522Z,19.77
2019-04-04T15:34:40.985Z,19.58
2019-04-04T15:37:09.497Z,19.58
2019-04-04T15:39:37.960Z,19.55
2019-04-04T15:42:06.529Z,19.55
2019-04-04T15:44:35.001Z,19.74
2019-04-04T15:47:03.609Z,19.56
2019-04-04T15:49:32.083Z,19.77
2019-04-04T15:52:00.560Z,19.77
2019-04-04T15:54:29.042Z,19.60
2019-04-04T15:56:57.529Z,19.53
2019-04-04T15:59:26.004Z,19.53
2019-04-04T16:01:54.584Z,19.37
2019-04-04T16:04:23.050Z,19.31
2019-04-04T16:06:51.719Z,19.07
2019-04-04T16:09:20.188Z,19.31
2019-04-04T16:11:49.999Z,18.96
2019-04-04T16:14:18.793Z,18.96
2019-04-04T16:16:47.296Z,19.19
2019-04-04T16:19:15.809Z,19.27
2019-04-04T16:21:44.280Z,19.06
2019-04-04T16:24:12.849Z,18.93
2019-04-04T16:26:41.335Z,19.16
2019-04-04T16:29:09.848Z,19.34
2019-04-04T16:31:38.336Z,19.34
2019-04-04T16:34:06.808Z,19.50
2019-04-04T16:36:35.325Z,19.36
2019-04-04T16:39:05.984Z,19.42
2019-04-04T16:41:34.471Z,19.24
2019-04-04T16:44:06.178Z,19.00
2019-04-04T16:46:34.686Z,19.10
2019-04-04T16:49:03.230Z,19.25
2019-04-04T16:51:31.731Z,18.98
2019-04-04T16:54:00.222Z,18.63
2019-04-04T16:56:28.731Z,18.75
2019-04-04T16:58:57.238Z,18.69
2019-04-04T17:01:25.719Z,18.81
2019-04-04T17:04:01.575Z,18.89
2019-04-04T17:06:24.966Z,18.80
2019-04-04T17:08:53.464Z,18.73
2019-04-04T17:11:21.945Z,18.55
2019-04-04T17:13:50.454Z,18.72
2019-04-04T17:16:21.233Z,18.96
2019-04-04T17:18:49.150Z,18.78
2019-04-04T17:21:17.627Z,18.98
2019-04-04T17:23:46.138Z,19.02
2019-04-04T17:26:14.623Z,18.70
2019-04-04T17:28:43.410Z,18.83
2019-04-04T17:31:12.525Z,18.78
2019-04-04T17:33:41.154Z,18.68
2019-04-04T17:36:09.732Z,18.47
2019-04-04T17:38:38.490Z,18.36
2019-04-04T17:41:08.120Z,18.23
2019-04-04T17:43:38.024Z,17.90
2019-04-04T17:46:06.954Z,17.69
2019-04-04T17:48:35.612Z,17.69
2019-04-04T17:51:06.495Z,17.95
2019-04-04T17:53:35.454Z,17.57
2019-04-04T17:56:07.526Z,17.54
2019-04-04T17:58:35.709Z,17.36
2019-04-04T18:01:05.654Z,16.82
2019-04-04T18:03:34.228Z,17.15
2019-04-04T18:06:02.707Z,17.25
2019-04-04T18:08:31.220Z,17.53
2019-04-04T18:11:00.028Z,17.51
2019-04-04T18:13:28.526Z,17.39
2019-04-04T18:15:57.019Z,17.29
2019-04-04T18:18:25.506Z,17.34
2019-04-04T18:20:53.996Z,16.24
2019-04-04T18:23:23.511Z,16.58
2019-04-04T18:25:52.092Z,16.47
2019-04-04T18:28:20.580Z,16.62
2019-04-04T18:30:49.073Z,16.73
2019-04-04T18:33:19.725Z,16.82
2019-04-04T18:35:47.800Z,16.80
2019-04-04T18:38:16.306Z,16.57
2019-04-04T18:40:44.779Z,16.70
2019-04-04T18:43:13.268Z,16.72
2019-04-04T18:45:41.825Z,16.16
2019-04-04T18:48:10.292Z,16.45
2019-04-04T18:50:38.780Z,16.54
2019-04-04T18:53:08.897Z,16.16
2019-04-04T18:55:38.225Z,16.35
2019-04-04T18:58:06.782Z,16.41
2019-04-04T19:00:35.355Z,16.31
2019-04-04T19:03:03.997Z,15.74
2019-04-04T19:05:32.632Z,16.08
2019-04-04T19:08:01.115Z,15.97
2019-04-04T19:10:29.666Z,15.68
2019-04-04T19:13:05.354Z,16.09
2019-04-04T19:15:28.447Z,16.31
2019-04-04T19:17:56.956Z,15.91
2019-04-04T19:20:25.492Z,15.55
2019-04-04T19:22:54.001Z,15.83
2019-04-04T19:25:22.611Z,16.30
2019-04-04T19:27:51.301Z,16.01
2019-04-04T19:30:20.013Z,15.93
2019-04-04T19:32:48.615Z,16.38
2019-04-04T19:35:17.658Z,16.13
2019-04-04T19:37:46.131Z,16.18
2019-04-04T19:40:15.571Z,16.10
2019-04-04T19:42:44.132Z,16.29
2019-04-04T19:45:13.586Z,16.61
2019-04-04T19:47:42.051Z,16.70
2019-04-04T19:50:11.498Z,16.75
2019-04-04T19:52:40.120Z,16.76
2019-04-04T19:55:08.867Z,16.82
2019-04-04T19:57:37.346Z,16.57
2019-04-04T20:00:09.064Z,16.96
2019-04-04T20:02:37.575Z,16.63
2019-04-04T20:05:07.385Z,16.17
2019-04-04T20:07:35.853Z,16.20
2019-04-04T20:10:07.104Z,15.71
2019-04-04T20:12:35.573Z,15.67
2019-04-04T20:15:05.857Z,15.68
2019-04-04T20:17:34.337Z,16.24
2019-04-04T20:20:04.377Z,16.24
2019-04-04T20:22:32.893Z,15.94
2019-04-04T20:25:01.369Z,16.12
2019-04-04T20:27:29.852Z,15.60
2019-04-04T20:29:58.398Z,15.99
2019-04-04T20:32:26.879Z,15.27
2019-04-04T20:34:55.403Z,15.58
2019-04-04T20:37:23.892Z,15.45
2019-04-04T20:39:52.367Z,15.87
2019-04-04T20:42:20.877Z,15.92
2019-04-04T20:44:49.367Z,15.94
2019-04-04T20:47:17.875Z,16.18
2019-04-04T20:49:46.352Z,16.25
2019-04-04T20:52:14.828Z,16.31
2019-04-04T20:54:43.314Z,16.14
2019-04-04T20:57:11.784Z,16.04
2019-04-04T20:59:40.270Z,15.60
2019-04-04T21:02:08.746Z,14.97
2019-04-04T21:04:37.287Z,14.69
2019-04-04T21:07:05.837Z,14.71
2019-04-04T21:09:34.306Z,15.06
2019-04-04T21:12:04.451Z,15.42
2019-04-04T21:14:32.924Z,15.17
2019-04-04T21:17:01.437Z,14.50
2019-04-04T21:19:29.926Z,15.05
2019-04-04T21:21:58.428Z,14.81
2019-04-04T21:24:26.900Z,14.38
2019-04-04T21:26:55.412Z,14.71
2019-04-04T21:29:25.390Z,14.73
2019-04-04T21:31:53.860Z,14.26
2019-04-04T21:34:22.369Z,14.16
2019-04-04T21:36:50.841Z,14.51
2019-04-04T21:39:19.351Z,14.57
2019-04-04T21:41:50.138Z,14.72
2019-04-04T21:44:18.643Z,14.91
2019-04-04T21:46:47.148Z,14.21
2019-04-04T21:49:15.617Z,14.41
2019-04-04T21:51:44.102Z,14.43
2019-04-04T21:54:12.573Z,14.46
2019-04-04T21:56:41.075Z,14.60
2019-04-04T21:59:09.562Z,14.69
2019-04-04T22:01:38.544Z,14.63
2019-04-04T22:04:07.086Z,14.20
2019-04-04T22:06:35.564Z,14.37
2019-04-04T22:09:07.629Z,14.74
2019-04-04T22:11:36.098Z,14.82
2019-04-04T22:14:04.602Z,14.84
2019-04-04T22:16:33.152Z,15.09
2019-04-04T22:19:01.657Z,14.77
2019-04-04T22:21:30.127Z,14.20
2019-04-04T22:23:58.624Z,14.36
2019-04-04T22:26:27.105Z,13.94
2019-04-04T22:28:55.601Z,14.12
2019-04-04T22:31:24.077Z,14.44
2019-04-04T22:33:53.478Z,14.71
2019-04-04T22:36:21.947Z,15.00
2019-04-04T22:38:50.490Z,14.30
2019-04-04T22:41:19.060Z,14.62
2019-04-04T22:43:47.539Z,14.42
2019-04-04T22:46:16.041Z,14.32
2019-04-04T22:48:44.518Z,14.08
2019-04-04T22:51:13.024Z,14.25
2019-04-04T22:53:41.532Z,14.30
2019-04-04T22:56:10.000Z,14.15
2019-04-04T22:58:38.572Z,14.16
2019-04-04T23:01:07.045Z,14.37
2019-04-04T23:03:35.547Z,14.38
2019-04-04T23:06:04.092Z,14.27
2019-04-04T23:08:32.595Z,14.53
2019-04-04T23:11:01.070Z,14.40
2019-04-04T23:13:29.611Z,14.49
2019-04-04T23:15:58.087Z,13.99
2019-04-04T23:18:26.562Z,14.40
2019-04-04T23:20:55.129Z,14.19
2019-04-04T23:23:23.599Z,14.58
2019-04-04T23:25:52.075Z,14.21
2019-04-04T23:28:20.550Z,14.53
2019-04-04T23:30:49.049Z,14.63
2019-04-04T23:33:17.522Z,14.57
2019-04-04T23:35:46.065Z,14.81
2019-04-04T23:38:14.595Z,14.74
2019-04-04T23:40:43.009Z,14.89
2019-04-04T23:43:11.518Z,14.96
2019-04-04T23:45:40.000Z,14.69
2019-04-04T23:48:08.512Z,14.82
2019-04-04T23:50:36.976Z,14.86
2019-04-04T23:53:05.462Z,14.87
2019-04-04T23:55:33.934Z,15.00
2019-04-04T23:58:02.444Z,14.13
